createdAt,value
2023-12-23T00:02:39.163Z,97239.84
2023-12-23T00:05:42.177Z,97243.09
2023-12-23T00:08:44.460Z,97242.31
2023-12-23T00:11:46.981Z,97248.53
2023-12-23T00:14:49.574Z,97244.50
2023-12-23T00:17:52.268Z,97262.41
2023-12-23T00:20:55.198Z,97272.56
2023-12-23T00:23:57.828Z,97273.13
2023-12-23T00:27:00.280Z,97281.69
2023-12-23T00:30:02.835Z,97286.22
2023-12-23T00:33:06.841Z,97280.56
2023-12-23T00:36:09.681Z,97272.59
2023-12-23T00:39:12.165Z,97285.41
2023-12-23T00:42:15.074Z,97282.50
2023-12-23T00:45:17.847Z,97295.84
2023-12-23T00:48:20.304Z,97289.19
2023-12-23T00:51:23.454Z,97298.53
2023-12-23T00:54:25.755Z,97297.19
2023-12-23T00:57:28.267Z,97307.88
2023-12-23T01:00:30.979Z,97311.88
2023-12-23T01:03:33.771Z,97312.44
2023-12-23T01:06:36.187Z,97306.03
2023-12-23T01:09:38.533Z,97320.44
2023-12-23T01:12:41.220Z,97330.34
2023-12-23T01:15:43.618Z,97335.69
2023-12-23T01:18:46.047Z,97334.34
2023-12-23T01:21:48.661Z,97347.16
2023-12-23T01:24:51.251Z,97345.03
2023-12-23T01:27:54.250Z,97356.78
2023-12-23T01:30:57.028Z,97369.88
2023-12-23T01:33:59.743Z,97353.28
2023-12-23T01:37:02.204Z,97380.56
2023-12-23T01:40:05.952Z,97374.66
2023-12-23T01:43:08.597Z,97371.44
2023-12-23T01:46:13.277Z,97380.53
2023-12-23T01:49:15.846Z,97377.09
2023-12-23T01:52:18.362Z,97377.31
2023-12-23T01:55:21.591Z,97393.91
2023-12-23T01:58:24.169Z,97396.81
2023-12-23T02:01:26.641Z,97400.03
2023-12-23T02:04:29.072Z,97408.81
2023-12-23T02:07:31.677Z,97398.91
2023-12-23T02:10:35.017Z,97401.56
2023-12-23T02:13:50.097Z,97412.00
2023-12-23T02:16:54.531Z,97424.81
2023-12-23T02:19:58.362Z,97418.91
2023-12-23T02:23:01.061Z,97421.06
2023-12-23T02:26:03.876Z,97429.63
2023-12-23T02:29:07.772Z,97435.28
2023-12-23T02:32:11.193Z,97443.00
2023-12-23T02:35:14.490Z,97447.00
2023-12-23T02:38:16.953Z,97435.50
2023-12-23T02:41:19.487Z,97456.63
2023-12-23T02:44:23.371Z,97453.41
2023-12-23T02:47:25.852Z,97458.78
2023-12-23T02:50:28.481Z,97462.00
2023-12-23T02:53:30.950Z,97459.81
2023-12-23T02:56:33.524Z,97459.81
2023-12-23T02:59:36.102Z,97451.31
2023-12-23T03:02:38.617Z,97463.34
2023-12-23T03:05:41.412Z,97459.84
2023-12-23T03:08:45.194Z,97469.72
2023-12-23T03:11:48.981Z,97474.81
2023-12-23T03:14:51.201Z,97472.94
2023-12-23T03:17:54.121Z,97476.16
2023-12-23T03:20:56.759Z,97479.09
2023-12-23T03:23:59.657Z,97494.59
2023-12-23T03:27:02.429Z,97486.31
2023-12-23T03:30:05.458Z,97493.78
2023-12-23T03:33:08.199Z,97503.69
2023-12-23T03:36:10.810Z,97507.16
2023-12-23T03:39:13.145Z,97515.19
2023-12-23T03:42:15.706Z,97514.38
2023-12-23T03:45:18.478Z,97518.97
2023-12-23T03:48:20.939Z,97521.63
2023-12-23T03:51:24.708Z,97523.47
2023-12-23T03:54:27.040Z,97539.00
2023-12-23T03:57:29.423Z,97549.94
2023-12-23T04:00:32.399Z,97552.06
2023-12-23T04:03:38.240Z,97548.09
2023-12-23T04:06:43.644Z,97558.78
2023-12-23T04:09:47.182Z,97559.31
2023-12-23T04:12:50.010Z,97572.13
2023-12-23T04:15:52.701Z,97584.16
2023-12-23T04:18:55.166Z,97592.72
2023-12-23T04:21:58.424Z,97602.88
2023-12-23T04:25:00.780Z,97604.50
2023-12-23T04:28:03.602Z,97604.50
2023-12-23T04:31:06.848Z,97602.63
2023-12-23T04:34:09.557Z,97607.69
2023-12-23T04:37:12.712Z,97616.25
2023-12-23T04:40:17.128Z,97609.03
2023-12-23T04:43:20.072Z,97630.13
2023-12-23T04:46:23.858Z,97620.25
2023-12-23T04:49:26.732Z,97631.72
2023-12-23T04:52:29.236Z,97633.59
2023-12-23T04:55:33.769Z,97626.38
2023-12-23T04:58:36.636Z,97631.19
2023-12-23T05:01:39.395Z,97627.44
2023-12-23T05:04:44.147Z,97646.13
2023-12-23T05:07:48.859Z,97632.53
2023-12-23T05:10:51.913Z,97640.53
2023-12-23T05:13:54.302Z,97646.16
2023-12-23T05:16:56.708Z,97637.59
2023-12-23T05:19:59.136Z,97652.56
2023-12-23T05:23:01.563Z,97655.81
2023-12-23T05:26:04.154Z,97675.53
2023-12-23T05:29:06.833Z,97677.97
2023-12-23T05:32:10.721Z,97682.47
2023-12-23T05:35:13.280Z,97695.34
2023-12-23T05:38:15.701Z,97688.91
2023-12-23T05:41:18.094Z,97705.97
2023-12-23T05:44:20.848Z,97703.09
2023-12-23T05:47:23.464Z,97708.38
2023-12-23T05:50:25.909Z,97714.56
2023-12-23T05:53:28.682Z,97716.66
2023-12-23T05:56:31.358Z,97722.53
2023-12-23T05:59:34.081Z,97726.03
2023-12-23T06:02:36.536Z,97729.75
2023-12-23T06:05:39.647Z,97734.28
2023-12-23T06:08:42.076Z,97732.13
2023-12-23T06:11:44.819Z,97744.69
2023-12-23T06:14:47.415Z,97747.38
2023-12-23T06:17:52.490Z,97747.34
2023-12-23T06:20:55.039Z,97745.47
2023-12-23T06:23:57.367Z,97739.63
2023-12-23T06:26:59.730Z,97757.69
2023-12-23T06:30:02.360Z,97754.03
2023-12-23T06:33:05.834Z,97769.97
2023-12-23T06:36:09.613Z,97761.78
2023-12-23T06:39:11.981Z,97763.13
2023-12-23T06:42:14.384Z,97755.59
2023-12-23T06:45:17.767Z,97768.41
2023-12-23T06:48:20.637Z,97761.16
2023-12-23T06:51:23.190Z,97768.13
2023-12-23T06:54:25.703Z,97772.41
2023-12-23T06:57:27.978Z,97777.25
2023-12-23T07:00:30.389Z,97771.91
2023-12-23T07:03:32.772Z,97788.91
2023-12-23T07:06:36.152Z,97779.88
2023-12-23T07:09:38.662Z,97786.56
2023-12-23T07:12:41.655Z,97785.00
2023-12-23T07:15:44.627Z,97788.75
2023-12-23T07:18:47.913Z,97783.38
2023-12-23T07:21:54.403Z,97800.00
2023-12-23T07:24:57.357Z,97799.72
2023-12-23T07:27:59.815Z,97814.44
2023-12-23T07:31:02.234Z,97805.06
2023-12-23T07:34:04.769Z,97817.16
2023-12-23T07:37:07.190Z,97818.81
2023-12-23T07:40:10.201Z,97817.16
2023-12-23T07:43:12.563Z,97825.75
2023-12-23T07:46:14.944Z,97824.44
2023-12-23T07:49:17.507Z,97829.53
2023-12-23T07:52:19.873Z,97817.22
2023-12-23T07:55:22.337Z,97838.94
2023-12-23T07:58:24.783Z,97837.56
2023-12-23T08:01:27.265Z,97831.69
2023-12-23T08:04:29.593Z,97841.81
2023-12-23T08:07:31.987Z,97830.97
2023-12-23T08:10:34.571Z,97816.75
2023-12-23T08:13:37.814Z,97830.72
2023-12-23T08:16:40.289Z,97840.88
2023-12-23T08:19:42.696Z,97837.69
2023-12-23T08:22:45.174Z,97849.38
2023-12-23T08:25:48.516Z,97838.19
2023-12-23T08:28:50.914Z,97832.66
2023-12-23T08:31:53.405Z,97846.81
2023-12-23T08:34:55.897Z,97840.66
2023-12-23T08:37:58.507Z,97845.94
2023-12-23T08:41:00.912Z,97845.72
2023-12-23T08:44:06.404Z,97858.84
2023-12-23T08:47:08.897Z,97870.06
2023-12-23T08:50:12.092Z,97854.88
2023-12-23T08:53:15.694Z,97851.66
2023-12-23T08:56:18.470Z,97858.31
2023-12-23T08:59:21.185Z,97857.28
2023-12-23T09:02:26.958Z,97862.06
2023-12-23T09:05:30.291Z,97874.66
2023-12-23T09:08:34.808Z,97874.16
2023-12-23T09:11:46.134Z,97864.00
2023-12-23T09:14:51.967Z,97868.00
2023-12-23T09:17:54.711Z,97870.41
2023-12-23T09:20:57.484Z,97868.22
2023-12-23T09:23:59.873Z,97876.78
2023-12-23T09:27:02.656Z,97868.75
2023-12-23T09:30:06.492Z,97876.53
2023-12-23T09:33:09.044Z,97881.59
2023-12-23T09:36:11.540Z,97876.81
2023-12-23T09:39:14.591Z,97867.19
2023-12-23T09:42:17.274Z,97865.28
2023-12-23T09:45:20.565Z,97875.19
2023-12-23T09:48:23.057Z,97870.38
2023-12-23T09:51:28.722Z,97858.66
2023-12-23T09:54:34.968Z,97862.38
2023-12-23T09:57:37.497Z,97866.69
2023-12-23T10:00:39.843Z,97863.44
2023-12-23T10:03:42.302Z,97865.84
2023-12-23T10:06:44.707Z,97856.22
2023-12-23T10:09:53.478Z,97858.34
2023-12-23T10:12:55.961Z,97862.63
2023-12-23T10:15:58.354Z,97844.44
2023-12-23T10:19:01.926Z,97864.50
2023-12-23T10:22:05.430Z,97874.72
2023-12-23T10:25:09.175Z,97874.22
2023-12-23T10:28:12.033Z,97856.81
2023-12-23T10:31:14.983Z,97878.56
2023-12-23T10:34:19.574Z,97878.56
2023-12-23T10:37:24.112Z,97888.22
2023-12-23T10:40:29.530Z,97880.19
2023-12-23T10:43:32.239Z,97873.81
2023-12-23T10:46:34.934Z,97882.63
2023-12-23T10:49:37.889Z,97867.63
2023-12-23T10:52:42.323Z,97872.47
2023-12-23T10:55:48.687Z,97876.19
2023-12-23T10:58:52.531Z,97892.78
2023-12-23T11:01:54.819Z,97891.47
2023-12-23T11:04:58.606Z,97882.63
2023-12-23T11:08:14.144Z,97887.97
2023-12-23T11:11:20.242Z,97886.38
2023-12-23T11:14:22.936Z,97883.94
2023-12-23T11:17:26.211Z,97888.78
2023-12-23T11:20:34.801Z,97892.25
2023-12-23T11:23:37.368Z,97891.22
2023-12-23T11:26:40.917Z,97908.06
2023-12-23T11:29:43.614Z,97902.72
2023-12-23T11:32:46.349Z,97899.22
2023-12-23T11:35:53.074Z,97894.94
2023-12-23T11:38:55.832Z,97909.94
2023-12-23T11:41:58.828Z,97899.22
2023-12-23T11:45:01.477Z,97904.31
2023-12-23T11:48:04.283Z,97911.78
2023-12-23T11:51:10.179Z,97900.59
2023-12-23T11:54:13.840Z,97902.97
2023-12-23T11:57:16.404Z,97897.63
2023-12-23T12:00:20.308Z,97904.28
2023-12-23T12:03:26.715Z,97901.38
2023-12-23T12:06:29.715Z,97913.69
2023-12-23T12:09:32.844Z,97914.22
2023-12-23T12:12:35.432Z,97920.91
2023-12-23T12:15:37.896Z,97921.44
2023-12-23T12:18:45.371Z,97930.84
2023-12-23T12:21:48.375Z,97933.00
2023-12-23T12:24:53.954Z,97944.81
2023-12-23T12:27:58.916Z,97944.50
2023-12-23T12:31:10.415Z,97940.81
2023-12-23T12:34:19.254Z,97945.59
2023-12-23T12:37:21.878Z,97959.28
2023-12-23T12:40:24.979Z,97959.78
2023-12-23T12:43:33.100Z,97948.78
2023-12-23T12:46:37.569Z,97963.28
2023-12-23T12:49:59.392Z,97967.00
2023-12-23T12:53:08.058Z,97968.31
2023-12-23T12:56:15.672Z,97970.75
2023-12-23T12:59:19.424Z,97957.63
2023-12-23T13:02:24.345Z,97972.09
2023-12-23T13:05:26.952Z,97978.25
2023-12-23T13:08:29.645Z,97976.09
2023-12-23T13:11:33.082Z,97979.63
2023-12-23T13:14:36.963Z,97987.41
2023-12-23T13:17:39.701Z,97991.97
2023-12-23T13:20:42.459Z,97994.38
2023-12-23T13:23:44.970Z,97997.06
2023-12-23T13:26:47.535Z,98002.94
2023-12-23T13:29:50.208Z,97995.97
2023-12-23T13:32:52.994Z,98005.06
2023-12-23T13:35:55.575Z,98015.53
2023-12-23T13:38:58.087Z,98009.63
2023-12-23T13:42:01.131Z,98032.91
2023-12-23T13:45:06.053Z,98023.50
2023-12-23T13:48:08.892Z,98040.69
2023-12-23T13:51:11.740Z,98049.75
2023-12-23T13:54:14.165Z,98050.28
2023-12-23T13:57:17.037Z,98066.59
2023-12-23T14:00:19.777Z,98060.22
2023-12-23T14:03:22.248Z,98061.75
2023-12-23T14:06:24.734Z,98069.19
2023-12-23T14:09:27.190Z,98076.97
2023-12-23T14:12:29.702Z,98077.47
2023-12-23T14:15:32.414Z,98085.25
2023-12-23T14:18:35.687Z,98097.00
2023-12-23T14:21:38.682Z,98097.28
2023-12-23T14:24:41.573Z,98098.25
2023-12-23T14:27:47.057Z,98110.22
2023-12-23T14:30:49.644Z,98117.59
2023-12-23T14:33:57.030Z,98115.22
2023-12-23T14:36:59.411Z,98133.09
2023-12-23T14:40:01.838Z,98128.72
2023-12-23T14:43:04.289Z,98136.31
2023-12-23T14:46:06.676Z,98145.38
2023-12-23T14:49:10.524Z,98159.13
2023-12-23T14:52:13.189Z,98156.50
2023-12-23T14:55:16.653Z,98167.81
2023-12-23T14:58:19.021Z,98181.25
2023-12-23T15:01:21.776Z,98183.16
2023-12-23T15:04:24.695Z,98187.97
2023-12-23T15:07:29.016Z,98186.94
2023-12-23T15:10:31.751Z,98188.25
2023-12-23T15:13:39.146Z,98201.28
2023-12-23T15:16:42.969Z,98203.94
2023-12-23T15:19:45.445Z,98207.44
2023-12-23T15:22:47.980Z,98219.31
2023-12-23T15:25:50.849Z,98216.53
2023-12-23T15:28:54.199Z,98224.31
2023-12-23T15:31:56.661Z,98229.25
2023-12-23T15:34:59.277Z,98233.38
2023-12-23T15:38:01.835Z,98239.81
2023-12-23T15:41:04.452Z,98239.97
2023-12-23T15:44:07.231Z,98246.16
2023-12-23T15:47:10.774Z,98264.19
2023-12-23T15:50:14.399Z,98260.94
2023-12-23T15:53:20.768Z,98263.38
2023-12-23T15:56:23.967Z,98265.06
2023-12-23T15:59:26.711Z,98277.13
2023-12-23T16:02:29.316Z,98269.03
2023-12-23T16:05:31.983Z,98280.81
2023-12-23T16:08:34.681Z,98281.97
2023-12-23T16:11:38.873Z,98286.50
2023-12-23T16:14:43.248Z,98287.31
2023-12-23T16:17:46.300Z,98297.06
2023-12-23T16:20:53.374Z,98293.41
2023-12-23T16:23:55.997Z,98304.69
2023-12-23T16:26:58.495Z,98310.03
2023-12-23T16:30:02.745Z,98319.19
2023-12-23T16:33:05.333Z,98320.00
2023-12-23T16:36:15.433Z,98325.41
2023-12-23T16:39:21.187Z,98326.72
2023-12-23T16:42:23.555Z,98329.81
2023-12-23T16:45:26.062Z,98332.47
2023-12-23T16:48:28.495Z,98347.56
2023-12-23T16:51:31.235Z,98348.69
2023-12-23T16:54:33.602Z,98354.34
2023-12-23T16:57:37.694Z,98350.31
2023-12-23T17:00:40.278Z,98355.66
2023-12-23T17:03:44.001Z,98364.88
2023-12-23T17:06:46.673Z,98359.59
2023-12-23T17:09:49.294Z,98368.75
2023-12-23T17:12:51.910Z,98368.34
2023-12-23T17:15:54.608Z,98370.19
2023-12-23T17:18:57.466Z,98369.56
2023-12-23T17:22:00.390Z,98377.66
2023-12-23T17:25:02.927Z,98374.91
2023-12-23T17:28:10.278Z,98372.28
2023-12-23T17:31:14.584Z,98390.56
2023-12-23T17:34:17.184Z,98403.03
2023-12-23T17:37:19.622Z,98401.03
2023-12-23T17:40:21.959Z,98404.66
2023-12-23T17:43:24.262Z,98406.13
2023-12-23T17:46:28.524Z,98403.13
2023-12-23T17:49:30.927Z,98414.00
2023-12-23T17:52:33.587Z,98408.97
2023-12-23T17:55:36.340Z,98410.53
2023-12-23T17:58:42.030Z,98412.53
2023-12-23T18:01:45.664Z,98409.16
2023-12-23T18:04:48.797Z,98418.75
2023-12-23T18:07:54.653Z,98408.16
2023-12-23T18:10:57.684Z,98421.72
2023-12-23T18:14:00.710Z,98419.13
2023-12-23T18:17:04.693Z,98429.16
2023-12-23T18:20:07.419Z,98431.78
2023-12-23T18:23:13.725Z,98426.28
2023-12-23T18:26:16.287Z,98440.59
2023-12-23T18:29:19.009Z,98428.84
2023-12-23T18:32:21.812Z,98435.47
2023-12-23T18:35:24.529Z,98437.75
2023-12-23T18:38:28.862Z,98451.47
2023-12-23T18:41:31.420Z,98447.09
2023-12-23T18:44:34.050Z,98458.44
2023-12-23T18:47:37.113Z,98468.88
2023-12-23T18:50:40.060Z,98459.88
2023-12-23T18:53:47.762Z,98470.94
2023-12-23T18:56:50.508Z,98464.59
2023-12-23T18:59:52.969Z,98460.72
2023-12-23T19:02:56.062Z,98471.41
2023-12-23T19:05:59.889Z,98477.97
2023-12-23T19:09:02.457Z,98482.84
2023-12-23T19:12:05.357Z,98483.75
2023-12-23T19:15:08.371Z,98485.69
2023-12-23T19:18:11.113Z,98484.34
2023-12-23T19:21:13.886Z,98507.38
2023-12-23T19:24:17.287Z,98502.59
2023-12-23T19:27:19.814Z,98512.13
2023-12-23T19:30:22.261Z,98518.41
2023-12-23T19:33:28.110Z,98523.56
2023-12-23T19:36:31.608Z,98531.91
2023-12-23T19:39:34.021Z,98525.41
2023-12-23T19:42:36.332Z,98533.09
2023-12-23T19:45:38.969Z,98534.00
2023-12-23T19:48:43.102Z,98529.03
2023-12-23T19:51:45.571Z,98539.28
2023-12-23T19:54:47.906Z,98541.81
2023-12-23T19:57:50.335Z,98545.66
2023-12-23T20:00:52.986Z,98544.94
2023-12-23T20:03:56.619Z,98554.78
2023-12-23T20:06:59.114Z,98553.41
2023-12-23T20:10:03.102Z,98548.91
2023-12-23T20:13:07.064Z,98550.44
2023-12-23T20:16:09.779Z,98560.88
2023-12-23T20:19:13.996Z,98559.59
2023-12-23T20:22:16.561Z,98558.66
2023-12-23T20:25:18.976Z,98550.19
2023-12-23T20:28:21.473Z,98556.13
2023-12-23T20:31:23.808Z,98573.44
2023-12-23T20:34:29.804Z,98564.50
2023-12-23T20:37:32.225Z,98568.31
2023-12-23T20:40:34.690Z,98564.56
2023-12-23T20:43:37.286Z,98564.38
2023-12-23T20:46:41.897Z,98567.84
2023-12-23T20:49:44.378Z,98575.97
2023-12-23T20:52:46.958Z,98569.59
2023-12-23T20:55:49.623Z,98576.16
2023-12-23T20:58:56.651Z,98579.91
2023-12-23T21:01:59.003Z,98590.47
2023-12-23T21:05:01.853Z,98593.97
2023-12-23T21:08:05.641Z,98598.69
2023-12-23T21:11:08.160Z,98596.47
2023-12-23T21:14:10.883Z,98607.63
2023-12-23T21:17:13.767Z,98603.44
2023-12-23T21:20:16.322Z,98611.19
2023-12-23T21:23:18.885Z,98612.03
2023-12-23T21:26:24.369Z,98619.63
2023-12-23T21:29:27.362Z,98629.53
2023-12-23T21:32:30.014Z,98632.66
2023-12-23T21:35:34.640Z,98638.75
2023-12-23T21:38:38.002Z,98634.34
2023-12-23T21:41:40.679Z,98648.16
2023-12-23T21:44:43.038Z,98644.91
2023-12-23T21:47:49.109Z,98645.72
2023-12-23T21:50:55.605Z,98660.47
2023-12-23T21:53:58.287Z,98656.94
2023-12-23T21:57:00.940Z,98655.91
2023-12-23T22:00:04.461Z,98668.69
2023-12-23T22:03:06.940Z,98665.00
2023-12-23T22:06:09.559Z,98661.97
2023-12-23T22:09:15.015Z,98679.88
2023-12-23T22:12:17.365Z,98676.28
2023-12-23T22:15:20.238Z,98686.16
2023-12-23T22:18:22.852Z,98679.38
2023-12-23T22:21:25.637Z,98680.56
2023-12-23T22:24:28.128Z,98685.75
2023-12-23T22:27:30.982Z,98692.28
2023-12-23T22:30:33.632Z,98693.34
2023-12-23T22:33:36.603Z,98692.00
2023-12-23T22:36:39.529Z,98714.50
2023-12-23T22:39:48.749Z,98712.88
2023-12-23T22:42:52.746Z,98714.03
2023-12-23T22:45:58.036Z,98721.84
2023-12-23T22:49:02.936Z,98712.91
2023-12-23T22:52:05.605Z,98726.38
2023-12-23T22:55:08.609Z,98743.47
2023-12-23T22:58:12.446Z,98742.53
2023-12-23T23:01:16.283Z,98742.19
2023-12-23T23:04:18.652Z,98753.44
2023-12-23T23:07:21.294Z,98765.75
2023-12-23T23:10:23.802Z,98759.84
2023-12-23T23:13:26.358Z,98755.75
2023-12-23T23:16:29.022Z,98762.53
2023-12-23T23:19:32.359Z,98772.47
2023-12-23T23:22:35.051Z,98771.22
2023-12-23T23:25:37.365Z,98773.66
2023-12-23T23:28:39.933Z,98785.25
2023-12-23T23:31:43.071Z,98773.31
2023-12-23T23:34:46.563Z,98795.00
2023-12-23T23:37:49.353Z,98790.28
2023-12-23T23:40:51.933Z,98782.59
2023-12-23T23:43:54.524Z,98786.91
2023-12-23T23:46:56.926Z,98797.59
2023-12-23T23:50:00.093Z,98800.72
2023-12-23T23:53:03.556Z,98813.38
2023-12-23T23:56:06.546Z,98795.50
2023-12-23T23:59:10.468Z,98810.81
